Time;durP1;ratioP1;P1;durP2;ratioP2;P2;SDS_P1;SDS_P2;PMS_P1;PMS_P2;Temp;Humidity;BMP_temperature;BMP_pressure;BME280_temperature;BME280_humidity;BME280_pressure;Samples;Min_cycle;Max_cycle;Signal;HPM_P1;HPM_P2
2023/09/24 00:00:56;;;;;;;9.95;5.60;;;12.50;99.90;;;;;;5036033;28;20628;-59
2023/09/24 00:03:22;;;;;;;11.38;6.30;;;12.40;99.90;;;;;;5035691;28;20190;-59
2023/09/24 00:05:47;;;;;;;10.60;5.85;;;12.30;99.90;;;;;;5017911;28;20694;-59
2023/09/24 00:08:13;;;;;;;8.65;5.88;;;12.30;99.90;;;;;;5035592;28;20199;-60
2023/09/24 00:10:39;;;;;;;9.48;6.15;;;12.20;99.90;;;;;;5017480;28;20278;-59
2023/09/24 00:13:04;;;;;;;12.32;5.75;;;12.20;99.90;;;;;;5035583;28;20179;-59
2023/09/24 00:15:33;;;;;;;13.90;6.30;;;12.20;99.90;;;;;;5035718;28;20203;-59
2023/09/24 00:18:03;;;;;;;10.70;6.25;;;12.30;99.90;;;;;;5035320;28;20675;-59
2023/09/24 00:20:28;;;;;;;10.43;6.00;;;12.40;99.90;;;;;;5035659;28;20171;-59
2023/09/24 00:22:54;;;;;;;8.45;5.82;;;12.30;99.90;;;;;;5035318;28;20183;-59
2023/09/24 00:25:21;;;;;;;9.10;5.43;;;12.30;99.90;;;;;;5035878;28;20175;-59
2023/09/24 00:27:47;;;;;;;9.50;5.50;;;12.20;99.90;;;;;;5035037;28;20171;-59
2023/09/24 00:30:14;;;;;;;7.43;5.63;;;12.30;99.90;;;;;;5035893;28;20174;-60
2023/09/24 00:32:40;;;;;;;7.85;5.45;;;12.30;99.90;;;;;;5035384;28;20286;-59
2023/09/24 00:35:06;;;;;;;9.25;6.13;;;12.20;99.90;;;;;;5035263;28;20302;-59
2023/09/24 00:37:34;;;;;;;12.50;6.45;;;12.30;99.90;;;;;;5034048;28;20519;-59
2023/09/24 00:40:02;;;;;;;12.35;6.75;;;12.20;99.90;;;;;;5017353;28;20182;-59
2023/09/24 00:42:28;;;;;;;10.15;5.93;;;12.20;99.90;;;;;;5017090;28;20197;-59
2023/09/24 00:44:55;;;;;;;7.28;6.10;;;12.20;99.90;;;;;;5035019;28;20179;-59
2023/09/24 00:47:22;;;;;;;7.20;5.82;;;12.20;99.90;;;;;;5035272;28;20179;-59
2023/09/24 00:49:48;;;;;;;9.05;6.53;;;12.10;99.90;;;;;;5034830;28;20191;-59
2023/09/24 00:52:15;;;;;;;12.80;7.47;;;12.10;99.90;;;;;;5034733;28;20289;-59
2023/09/24 00:54:41;;;;;;;12.60;6.40;;;12.00;99.90;;;;;;5016946;28;20225;-59
2023/09/24 00:57:07;;;;;;;10.05;6.60;;;11.90;99.90;;;;;;5034497;28;20631;-59
2023/09/24 00:59:33;;;;;;;12.05;6.35;;;11.80;99.90;;;;;;5034754;28;20202;-59
2023/09/24 01:01:59;;;;;;;13.05;6.75;;;11.80;99.90;;;;;;5034713;28;20266;-59
2023/09/24 01:04:25;;;;;;;9.00;6.45;;;11.70;99.90;;;;;;5034646;28;20214;-59
2023/09/24 01:06:53;;;;;;;6.72;5.75;;;11.60;99.90;;;;;;5035170;28;20173;-59
2023/09/24 01:09:19;;;;;;;11.70;6.63;;;11.60;99.90;;;;;;5034717;28;20545;-59
2023/09/24 01:11:47;;;;;;;10.95;6.75;;;11.70;99.90;;;;;;5034093;28;20201;-59
2023/09/24 01:14:13;;;;;;;7.72;5.88;;;11.60;99.90;;;;;;5034512;28;20543;-59
2023/09/24 01:16:39;;;;;;;12.13;7.30;;;11.60;99.90;;;;;;5034529;28;20168;-59
2023/09/24 01:19:07;;;;;;;9.25;6.65;;;11.60;99.90;;;;;;5034303;28;20191;-60
2023/09/24 01:21:33;;;;;;;8.93;6.50;;;11.50;99.90;;;;;;5016724;28;20250;-60
2023/09/24 01:23:59;;;;;;;9.80;7.28;;;11.50;99.90;;;;;;5034859;28;20175;-59
2023/09/24 01:26:25;;;;;;;14.73;7.43;;;11.60;99.90;;;;;;5034361;28;20171;-59
2023/09/24 01:28:52;;;;;;;9.43;7.20;;;11.50;99.90;;;;;;5016548;28;20202;-59
2023/09/24 01:31:21;;;;;;;13.50;7.78;;;11.40;99.90;;;;;;5034680;28;20199;-60
2023/09/24 01:33:50;;;;;;;9.02;6.13;;;11.50;99.90;;;;;;5033944;28;20687;-60
2023/09/24 01:36:17;;;;;;;10.98;7.32;;;11.40;99.90;;;;;;5034449;28;20183;-58
2023/09/24 01:38:43;;;;;;;13.05;7.38;;;11.30;99.90;;;;;;5034514;28;20544;-60
2023/09/24 01:41:10;;;;;;;11.32;7.30;;;11.30;99.90;;;;;;5034270;28;20178;-58
2023/09/24 01:43:37;;;;;;;12.65;7.68;;;11.20;99.90;;;;;;5034476;28;20182;-59
2023/09/24 01:46:06;;;;;;;10.80;7.03;;;11.10;99.90;;;;;;5034525;28;20183;-59
2023/09/24 01:48:35;;;;;;;10.05;7.00;;;11.10;99.90;;;;;;5033719;28;20199;-59
2023/09/24 01:51:10;;;;;;;8.95;6.80;;;11.10;99.90;;;;;;5016095;28;20253;-59
2023/09/24 01:53:38;;;;;;;11.55;7.13;;;11.10;99.90;;;;;;5033722;28;20181;-59
2023/09/24 01:56:06;;;;;;;11.93;7.25;;;11.00;99.90;;;;;;5033713;28;20727;-59
2023/09/24 01:58:32;;;;;;;8.27;7.47;;;10.90;99.90;;;;;;5033663;28;20198;-59
2023/09/24 02:00:58;;;;;;;8.73;7.07;;;10.90;99.90;;;;;;5033662;28;20179;-59
2023/09/24 02:03:24;;;;;;;9.98;6.53;;;10.90;99.90;;;;;;5033648;28;20175;-59
2023/09/24 02:05:50;;;;;;;8.25;6.93;;;10.80;99.90;;;;;;5033543;28;20636;-59
2023/09/24 02:08:16;;;;;;;10.32;6.72;;;10.80;99.90;;;;;;5033528;28;20202;-59
2023/09/24 02:10:42;;;;;;;11.15;7.30;;;10.80;99.90;;;;;;5034080;28;20174;-59
2023/09/24 02:13:10;;;;;;;8.70;7.43;;;10.70;99.90;;;;;;5033583;28;20262;-59
2023/09/24 02:15:38;;;;;;;10.23;6.35;;;10.70;99.90;;;;;;5033711;28;20675;-61
2023/09/24 02:18:05;;;;;;;12.27;7.00;;;10.60;99.90;;;;;;5033331;28;20191;-59
2023/09/24 02:22:59;;;;;;;15.52;7.00;;;10.50;99.90;;;;;;5033384;28;20217;-59
2023/09/24 02:25:30;;;;;;;11.43;6.45;;;10.40;99.90;;;;;;5033511;28;20194;-59
2023/09/24 02:27:56;;;;;;;8.85;7.15;;;10.30;99.90;;;;;;5033019;28;20191;-59
2023/09/24 02:30:24;;;;;;;8.68;6.30;;;10.30;99.90;;;;;;5033348;28;20584;-60
2023/09/24 02:32:50;;;;;;;8.80;6.85;;;10.30;99.90;;;;;;5033391;28;20202;-60
2023/09/24 02:35:16;;;;;;;13.02;7.32;;;10.30;99.90;;;;;;5033243;28;20189;-60
2023/09/24 02:37:50;;;;;;;9.63;6.75;;;10.20;99.90;;;;;;5033171;28;20251;-59
2023/09/24 02:40:26;;;;;;;10.07;7.27;;;10.20;99.90;;;;;;5033759;28;20613;-60
2023/09/24 02:43:00;;;;;;;8.60;6.88;;;10.10;99.90;;;;;;5032954;28;20179;-60
2023/09/24 02:45:27;;;;;;;9.75;6.47;;;10.10;99.90;;;;;;5033196;28;20171;-62
2023/09/24 02:47:53;;;;;;;12.70;7.53;;;10.10;99.90;;;;;;5015569;28;20643;-60
2023/09/24 02:50:23;;;;;;;10.35;7.07;;;10.00;99.90;;;;;;5033952;28;20317;-59
2023/09/24 02:52:52;;;;;;;10.13;6.82;;;10.00;99.90;;;;;;5032967;28;20567;-58
2023/09/24 02:55:18;;;;;;;14.98;7.10;;;10.10;99.90;;;;;;5032962;28;20659;-59
2023/09/24 02:57:46;;;;;;;8.52;6.25;;;10.10;99.90;;;;;;5032780;28;20178;-59
2023/09/24 03:00:20;;;;;;;7.60;6.00;;;10.10;99.90;;;;;;5015926;28;20550;-59
2023/09/24 03:02:53;;;;;;;13.75;6.65;;;10.00;99.90;;;;;;5037170;28;20182;-59
2023/09/24 03:05:20;;;;;;;8.45;5.97;;;9.90;99.90;;;;;;5019057;28;20178;-59
2023/09/24 03:07:50;;;;;;;7.40;6.60;;;9.80;99.90;;;;;;5036672;28;20183;-59
2023/09/24 03:10:16;;;;;;;7.57;6.55;;;9.80;99.90;;;;;;5036938;28;20308;-61
2023/09/24 03:12:43;;;;;;;10.10;5.72;;;9.80;99.90;;;;;;5036354;28;20566;-60
2023/09/24 03:15:12;;;;;;;9.00;5.57;;;9.80;99.90;;;;;;5036902;28;20258;-59
2023/09/24 03:17:43;;;;;;;7.93;5.60;;;9.80;99.90;;;;;;5018694;28;20179;-58
2023/09/24 03:20:19;;;;;;;6.60;5.90;;;9.80;99.90;;;;;;5036821;28;20237;-61
2023/09/24 03:22:53;;;;;;;8.40;5.63;;;9.80;99.90;;;;;;5036791;28;20546;-60
2023/09/24 03:25:21;;;;;;;7.18;5.93;;;9.70;99.90;;;;;;5036421;28;20654;-59
2023/09/24 03:27:50;;;;;;;8.82;6.10;;;9.60;99.90;;;;;;5018363;28;20175;-61
2023/09/24 03:30:17;;;;;;;8.18;6.53;;;9.60;99.90;;;;;;5036360;28;20729;-59
2023/09/24 03:32:44;;;;;;;7.47;6.65;;;9.70;99.90;;;;;;5018532;28;20210;-59
2023/09/24 03:35:10;;;;;;;10.32;6.45;;;9.60;99.90;;;;;;5036254;28;20174;-59
2023/09/24 03:37:37;;;;;;;7.63;6.32;;;9.50;99.90;;;;;;5036205;28;20179;-60
2023/09/24 03:40:05;;;;;;;7.25;6.28;;;9.40;99.90;;;;;;5036178;28;20167;-59
2023/09/24 03:42:32;;;;;;;10.18;5.93;;;9.30;99.90;;;;;;5035847;28;20182;-59
2023/09/24 03:44:57;;;;;;;6.97;5.72;;;9.40;99.90;;;;;;5036164;28;20179;-59
2023/09/24 03:47:23;;;;;;;7.82;5.63;;;9.40;99.90;;;;;;5018213;28;20182;-59
2023/09/24 03:49:49;;;;;;;8.15;5.47;;;9.40;99.90;;;;;;5035904;28;20221;-59
2023/09/24 03:52:15;;;;;;;6.80;5.75;;;9.30;99.90;;;;;;5036135;28;20290;-61
2023/09/24 03:54:40;;;;;;;7.77;5.93;;;9.20;99.90;;;;;;5035886;28;20269;-61
2023/09/24 03:57:06;;;;;;;7.97;5.97;;;9.20;99.90;;;;;;5035608;28;20663;-59
2023/09/24 03:59:38;;;;;;;8.45;5.53;;;9.20;99.90;;;;;;5035816;28;20202;-61
2023/09/24 04:02:08;;;;;;;8.55;6.03;;;9.30;99.90;;;;;;5036114;28;20183;-59
2023/09/24 04:04:36;;;;;;;12.57;6.30;;;9.30;99.90;;;;;;5036285;28;20195;-60
2023/09/24 04:07:03;;;;;;;8.00;5.67;;;9.20;99.90;;;;;;5035778;28;20185;-60
2023/09/24 04:09:32;;;;;;;9.47;6.20;;;9.20;99.90;;;;;;5035541;28;20187;-59
2023/09/24 04:12:02;;;;;;;7.57;6.07;;;9.10;99.90;;;;;;5035186;28;20201;-60
2023/09/24 04:14:28;;;;;;;9.20;5.53;;;9.10;99.90;;;;;;5035555;28;20254;-60
2023/09/24 04:16:57;;;;;;;7.80;5.60;;;9.00;99.90;;;;;;5036021;28;20242;-60
2023/09/24 04:19:26;;;;;;;6.63;5.28;;;9.00;99.90;;;;;;5017643;28;20728;-59
2023/09/24 04:21:52;;;;;;;9.40;5.18;;;9.00;99.90;;;;;;5035358;28;20175;-59
2023/09/24 04:24:18;;;;;;;8.50;6.33;;;9.00;99.90;;;;;;5035453;28;20177;-59
2023/09/24 04:26:47;;;;;;;8.93;6.10;;;8.90;99.90;;;;;;5035097;28;20180;-59
2023/09/24 04:29:15;;;;;;;7.30;5.93;;;8.80;99.90;;;;;;5035333;28;20199;-59
2023/09/24 04:31:42;;;;;;;9.90;6.23;;;8.90;99.90;;;;;;5035420;28;20199;-59
2023/09/24 04:34:09;;;;;;;7.72;5.38;;;8.90;99.90;;;;;;5035214;28;20703;-61
2023/09/24 04:36:35;;;;;;;7.00;6.30;;;8.90;99.90;;;;;;5035676;28;20651;-58
2023/09/24 04:39:04;;;;;;;7.90;5.78;;;8.90;99.90;;;;;;5034981;28;20187;-59
2023/09/24 04:41:31;;;;;;;6.30;5.57;;;8.80;99.90;;;;;;5034822;28;20202;-59
2023/09/24 04:43:57;;;;;;;9.00;5.77;;;8.70;99.90;;;;;;5035433;28;20655;-59
2023/09/24 04:46:22;;;;;;;7.70;5.50;;;8.60;99.90;;;;;;5017211;28;20218;-59
2023/09/24 04:48:48;;;;;;;7.50;5.47;;;8.60;99.90;;;;;;5035072;28;20199;-59
2023/09/24 04:51:14;;;;;;;6.27;5.43;;;8.60;99.90;;;;;;5017055;28;20203;-61
2023/09/24 04:53:39;;;;;;;6.43;5.33;;;8.60;99.90;;;;;;5034876;28;20188;-59
2023/09/24 04:56:09;;;;;;;7.17;5.00;;;8.60;99.90;;;;;;5034923;28;20562;-59
2023/09/24 04:58:35;;;;;;;6.83;5.43;;;8.60;99.90;;;;;;5034337;28;20198;-60
2023/09/24 05:01:07;;;;;;;7.05;5.63;;;8.60;99.90;;;;;;5034966;28;20176;-59
2023/09/24 05:03:35;;;;;;;7.30;5.33;;;8.60;99.90;;;;;;5034604;28;20179;-59
2023/09/24 05:06:03;;;;;;;6.87;5.50;;;8.60;99.90;;;;;;5034606;28;20175;-60
2023/09/24 05:08:29;;;;;;;6.50;5.50;;;8.60;99.90;;;;;;5034458;28;20564;-59
2023/09/24 05:10:55;;;;;;;6.50;5.70;;;8.60;99.90;;;;;;5034648;28;20195;-59
2023/09/24 05:13:20;;;;;;;6.43;4.87;;;8.60;99.90;;;;;;5034125;28;20237;-59
2023/09/24 05:15:53;;;;;;;5.97;5.20;;;8.60;99.90;;;;;;5034689;28;20717;-60
2023/09/24 05:18:22;;;;;;;5.57;4.97;;;8.50;99.90;;;;;;5034553;28;20191;-60
2023/09/24 05:20:48;;;;;;;7.70;5.30;;;8.50;99.90;;;;;;5034246;28;20229;-60
2023/09/24 05:23:14;;;;;;;5.83;5.10;;;8.50;99.90;;;;;;5033682;28;20643;-60
2023/09/24 05:25:40;;;;;;;7.33;5.30;;;8.50;99.90;;;;;;5034199;28;20175;-59
2023/09/24 05:28:07;;;;;;;6.20;5.30;;;8.40;99.90;;;;;;5033926;28;20731;-59
2023/09/24 05:30:32;;;;;;;6.80;5.20;;;8.50;99.90;;;;;;5034080;28;20258;-60
2023/09/24 05:32:58;;;;;;;7.20;5.43;;;8.50;99.90;;;;;;5034266;28;20286;-59
2023/09/24 05:35:24;;;;;;;7.80;5.43;;;8.50;99.90;;;;;;5034019;28;20174;-58
2023/09/24 05:37:50;;;;;;;6.00;5.40;;;8.60;99.90;;;;;;5033963;28;20174;-61
2023/09/24 05:40:16;;;;;;;6.20;5.57;;;8.70;99.90;;;;;;5034509;28;20182;-61
2023/09/24 05:42:42;;;;;;;6.57;5.33;;;8.80;99.90;;;;;;5033663;28;20656;-61
2023/09/24 05:45:08;;;;;;;7.20;6.07;;;8.80;99.90;;;;;;5016153;28;20178;-61
2023/09/24 05:47:34;;;;;;;7.57;5.97;;;8.70;99.90;;;;;;5033887;28;20529;-60
2023/09/24 05:50:02;;;;;;;6.17;5.57;;;8.70;99.90;;;;;;5033754;28;20199;-59
2023/09/24 05:52:29;;;;;;;5.87;5.30;;;8.70;99.90;;;;;;5033667;28;20540;-59
2023/09/24 05:54:55;;;;;;;6.07;5.47;;;8.80;99.90;;;;;;5033643;28;20191;-59
2023/09/24 05:57:21;;;;;;;7.23;5.90;;;8.90;99.90;;;;;;5033578;28;20662;-61
2023/09/24 05:59:47;;;;;;;6.97;6.00;;;8.90;99.90;;;;;;5033485;28;20187;-61
2023/09/24 06:02:12;;;;;;;10.07;6.80;;;8.80;99.90;;;;;;5015825;28;20557;-59
2023/09/24 06:04:38;;;;;;;8.20;6.67;;;8.80;99.90;;;;;;5033638;28;20172;-59
2023/09/24 06:07:05;;;;;;;7.53;6.40;;;8.90;99.90;;;;;;5015804;28;20175;-59
2023/09/24 06:09:31;;;;;;;7.70;6.10;;;9.00;99.90;;;;;;5015771;28;20203;-61
2023/09/24 06:11:57;;;;;;;8.57;6.50;;;9.00;99.90;;;;;;5033054;28;20590;-61
2023/09/24 06:14:23;;;;;;;10.70;6.90;;;9.10;99.90;;;;;;5033445;28;20181;-60
2023/09/24 06:16:49;;;;;;;8.18;6.28;;;9.10;99.90;;;;;;5033635;28;20530;-59
2023/09/24 06:19:14;;;;;;;6.67;5.97;;;9.20;99.90;;;;;;5033328;28;20548;-60
2023/09/24 06:21:40;;;;;;;9.30;7.15;;;9.20;99.90;;;;;;5033913;28;20171;-60
2023/09/24 06:24:06;;;;;;;10.30;7.00;;;9.30;99.90;;;;;;5015647;28;20237;-58
2023/09/24 06:26:32;;;;;;;10.67;7.27;;;9.40;99.90;;;;;;5033311;28;20301;-59
2023/09/24 06:28:58;;;;;;;10.33;7.60;;;9.40;99.90;;;;;;5033304;28;20339;-59
2023/09/24 06:31:24;;;;;;;9.10;7.43;;;9.40;99.90;;;;;;5033229;28;20199;-59
2023/09/24 06:33:50;;;;;;;9.47;7.57;;;9.50;99.90;;;;;;5015760;28;20581;-60
2023/09/24 06:36:16;;;;;;;9.80;7.60;;;9.50;99.90;;;;;;5035635;28;20574;-59
2023/09/24 06:38:44;;;;;;;11.98;8.30;;;9.60;99.90;;;;;;5037220;28;20191;-59
2023/09/24 06:41:10;;;;;;;14.23;8.63;;;9.80;99.90;;;;;;5037385;28;20175;-59
2023/09/24 06:43:35;;;;;;;10.88;9.00;;;9.90;99.90;;;;;;5037031;28;20190;-59
2023/09/24 06:46:04;;;;;;;11.63;8.70;;;10.00;99.90;;;;;;5037532;28;20603;-61
2023/09/24 06:48:30;;;;;;;15.25;7.75;;;10.00;99.90;;;;;;5037194;28;20201;-61
2023/09/24 06:51:04;;;;;;;8.88;7.78;;;10.10;99.90;;;;;;5037393;28;20172;-60
2023/09/24 06:53:30;;;;;;;8.77;7.70;;;10.20;99.90;;;;;;5037269;28;20251;-62
2023/09/24 06:55:57;;;;;;;10.48;7.60;;;10.20;99.90;;;;;;5037128;28;20254;-61
2023/09/24 06:58:22;;;;;;;10.02;8.10;;;10.30;99.90;;;;;;5036718;28;20187;-61
2023/09/24 07:00:48;;;;;;;12.07;7.70;;;10.40;99.90;;;;;;5037246;28;20687;-62
2023/09/24 07:03:14;;;;;;;8.88;7.60;;;10.50;99.90;;;;;;5019128;28;20314;-62
2023/09/24 07:05:40;;;;;;;11.63;8.57;;;10.70;99.90;;;;;;5036912;28;20301;-62
2023/09/24 07:08:06;;;;;;;12.25;9.18;;;10.80;99.90;;;;;;5036821;28;20195;-62
2023/09/24 07:10:32;;;;;;;17.50;10.70;;;10.90;99.90;;;;;;5019031;28;20186;-62
2023/09/24 07:12:57;;;;;;;13.13;9.25;;;10.90;99.90;;;;;;5036527;28;20690;-62
2023/09/24 07:15:23;;;;;;;11.73;8.70;;;11.10;99.90;;;;;;5036759;28;20203;-60
2023/09/24 07:17:49;;;;;;;17.52;9.88;;;11.20;99.90;;;;;;5036569;28;20242;-60
2023/09/24 07:20:15;;;;;;;16.30;10.15;;;11.30;99.90;;;;;;5036639;28;20540;-59
2023/09/24 07:22:40;;;;;;;12.95;9.48;;;11.40;99.90;;;;;;5036772;28;20182;-61
2023/09/24 07:25:06;;;;;;;15.63;9.75;;;11.40;99.90;;;;;;5037179;28;20705;-61
2023/09/24 07:27:32;;;;;;;10.13;8.00;;;11.50;99.90;;;;;;5036797;28;20546;-60
2023/09/24 07:30:08;;;;;;;10.18;7.60;;;11.70;99.90;;;;;;5036687;28;20191;-63
2023/09/24 07:32:40;;;;;;;12.75;9.45;;;11.80;99.90;;;;;;5018902;28;20241;-60
2023/09/24 07:35:10;;;;;;;11.93;7.95;;;12.00;99.90;;;;;;5036621;28;20155;-60
2023/09/24 07:37:39;;;;;;;15.45;9.43;;;12.10;99.90;;;;;;5018577;28;20207;-59
2023/09/24 07:40:08;;;;;;;12.32;8.25;;;12.40;99.90;;;;;;5018325;28;20175;-60
2023/09/24 07:42:37;;;;;;;11.77;9.05;;;12.60;99.90;;;;;;5010553;28;20187;-60
2023/09/24 07:45:07;;;;;;;13.40;8.93;;;12.70;99.90;;;;;;5016397;28;20179;-60
2023/09/24 07:47:33;;;;;;;11.85;8.52;;;12.90;99.90;;;;;;4998407;28;20176;-60
2023/09/24 07:50:02;;;;;;;11.35;8.98;;;13.00;99.90;;;;;;4998505;28;20203;-60
2023/09/24 07:52:28;;;;;;;13.70;9.45;;;13.40;99.90;;;;;;5016158;28;20238;-60
2023/09/24 07:54:54;;;;;;;12.07;9.27;;;13.60;99.90;;;;;;5016082;28;20200;-60
2023/09/24 07:57:21;;;;;;;11.43;8.45;;;14.00;99.90;;;;;;4998251;28;20176;-62
2023/09/24 07:59:56;;;;;;;10.60;8.48;;;14.00;99.90;;;;;;4998382;28;20230;-60
2023/09/24 08:02:30;;;;;;;10.20;8.20;;;14.10;99.90;;;;;;4999110;28;20172;-60
2023/09/24 08:05:00;;;;;;;13.30;8.43;;;14.20;99.90;;;;;;5015935;28;20187;-60
2023/09/24 08:07:30;;;;;;;12.20;8.57;;;14.60;99.90;;;;;;5015855;28;20655;-60
2023/09/24 08:09:56;;;;;;;12.52;8.32;;;14.60;99.90;;;;;;4998316;28;20203;-60
2023/09/24 08:12:24;;;;;;;10.27;8.35;;;14.80;99.90;;;;;;5003659;28;20340;-62
2023/09/24 08:15:00;;;;;;;8.73;7.15;;;14.80;99.90;;;;;;5036120;28;20221;-60
2023/09/24 08:17:32;;;;;;;11.70;8.00;;;15.00;99.90;;;;;;5001776;28;20640;-60
2023/09/24 08:19:58;;;;;;;11.25;7.20;;;15.30;99.90;;;;;;5035306;28;20195;-61
2023/09/24 08:22:24;;;;;;;9.45;7.78;;;15.50;99.90;;;;;;5001416;28;20187;-62
2023/09/24 08:24:59;;;;;;;11.95;7.90;;;15.70;99.90;;;;;;5017473;28;20179;-61
2023/09/24 08:27:25;;;;;;;8.60;6.85;;;16.00;99.90;;;;;;5017329;28;20198;-61
2023/09/24 08:29:54;;;;;;;10.40;6.25;;;16.10;99.90;;;;;;5000885;28;20203;-62
2023/09/24 08:32:23;;;;;;;10.00;6.78;;;16.10;99.90;;;;;;5035262;28;20199;-60
2023/09/24 08:34:51;;;;;;;8.38;6.60;;;16.10;99.90;;;;;;5017213;28;20179;-62
2023/09/24 08:37:22;;;;;;;9.32;5.68;;;16.10;99.90;;;;;;5017293;28;20263;-61
2023/09/24 08:39:56;;;;;;;7.43;5.43;;;16.00;99.90;;;;;;5017235;28;20207;-61
2023/09/24 08:42:22;;;;;;;12.70;6.07;;;16.20;99.90;;;;;;5016905;28;20191;-61
2023/09/24 08:45:03;;;;;;;8.05;5.88;;;16.50;99.90;;;;;;5016560;28;20659;-59
2023/09/24 08:47:32;;;;;;;9.57;5.22;;;16.80;99.90;;;;;;5016340;28;20191;-61
2023/09/24 08:50:03;;;;;;;9.93;5.40;;;16.90;99.90;;;;;;5017016;28;20199;-61
2023/09/24 08:52:35;;;;;;;8.50;5.10;;;17.10;99.90;;;;;;5017054;28;20199;-62
2023/09/24 08:55:05;;;;;;;6.25;4.20;;;17.30;99.90;;;;;;5016924;28;20195;-59
2023/09/24 08:57:39;;;;;;;5.07;3.67;;;17.40;99.90;;;;;;5034113;28;20207;-59
2023/09/24 09:00:10;;;;;;;4.43;3.70;;;17.50;99.90;;;;;;5011855;28;20206;-60
2023/09/24 09:02:37;;;;;;;4.95;3.70;;;17.50;99.90;;;;;;5017141;28;20642;-59
2023/09/24 09:05:11;;;;;;;10.95;3.90;;;17.50;99.90;;;;;;5015970;28;20531;-60
2023/09/24 09:07:55;;;;;;;6.90;3.70;;;17.60;99.90;;;;;;5016749;28;20182;-61
2023/09/24 09:10:32;;;;;;;5.70;3.53;;;17.60;99.90;;;;;;5016972;28;20179;-61
2023/09/24 09:13:18;;;;;;;4.18;3.42;;;17.70;99.90;;;;;;5016324;28;20202;-61
2023/09/24 09:15:46;;;;;;;5.60;3.38;;;17.80;99.90;;;;;;5016702;28;20214;-59
2023/09/24 09:18:23;;;;;;;6.75;3.78;;;17.70;99.90;;;;;;5016091;28;20191;-60
2023/09/24 09:20:58;;;;;;;4.35;3.20;;;17.80;99.90;;;;;;5016214;28;20175;-59
2023/09/24 09:23:42;;;;;;;4.75;3.55;;;17.70;99.90;;;;;;5016359;28;20225;-59
2023/09/24 09:26:11;;;;;;;7.32;3.33;;;17.70;99.90;;;;;;5016057;28;20183;-59
2023/09/24 09:28:40;;;;;;;8.55;3.20;;;17.80;99.90;;;;;;5016422;28;20203;-60
2023/09/24 09:31:08;;;;;;;5.13;2.60;;;17.80;99.90;;;;;;5016353;28;20231;-59
2023/09/24 09:33:42;;;;;;;4.20;2.53;;;17.90;99.90;;;;;;5016205;28;20221;-61
2023/09/24 09:36:34;;;;;;;7.72;2.78;;;17.80;99.90;;;;;;5016305;28;20159;-59
2023/09/24 09:39:02;;;;;;;5.00;2.53;;;17.70;99.90;;;;;;5015660;28;20245;-61
2023/09/24 09:41:30;;;;;;;6.63;2.42;;;17.60;99.90;;;;;;5034093;28;20156;-62
2023/09/24 09:44:03;;;;;;;5.40;2.72;;;17.60;99.90;;;;;;5033520;28;20191;-62
2023/09/24 09:46:29;;;;;;;4.68;2.75;;;17.60;99.90;;;;;;5033833;28;20182;-62
2023/09/24 09:49:01;;;;;;;4.45;2.55;;;17.70;99.90;;;;;;5033687;28;20202;-62
2023/09/24 09:51:30;;;;;;;2.58;2.28;;;17.80;99.90;;;;;;5033660;28;20278;-62
2023/09/24 09:54:04;;;;;;;5.40;2.33;;;17.90;99.90;;;;;;5016163;28;20191;-61
2023/09/24 09:56:31;;;;;;;4.30;2.20;;;18.00;99.90;;;;;;5015992;28;20187;-62
2023/09/24 09:58:57;;;;;;;3.53;2.22;;;18.00;99.90;;;;;;5033370;28;20253;-61
2023/09/24 10:01:23;;;;;;;4.00;2.20;;;18.10;99.90;;;;;;5033635;28;20650;-61
2023/09/24 10:03:51;;;;;;;3.05;2.10;;;18.10;99.90;;;;;;5033513;28;20171;-61
2023/09/24 10:06:17;;;;;;;4.63;2.40;;;18.10;99.90;;;;;;5033811;28;20178;-61
2023/09/24 10:08:47;;;;;;;4.22;1.95;;;18.00;99.90;;;;;;5033523;28;20191;-59
2023/09/24 10:11:35;;;;;;;5.63;2.20;;;18.00;99.90;;;;;;5033813;28;20199;-60
2023/09/24 10:14:05;;;;;;;5.28;2.20;;;18.00;99.90;;;;;;5032567;28;20258;-59
2023/09/24 10:16:38;;;;;;;3.67;2.58;;;18.00;99.90;;;;;;5033339;28;20171;-59
2023/09/24 10:19:09;;;;;;;3.78;2.67;;;17.90;99.90;;;;;;5033571;28;20186;-59
2023/09/24 10:21:44;;;;;;;2.90;2.13;;;18.00;99.90;;;;;;5033334;28;20648;-59
2023/09/24 10:24:13;;;;;;;4.45;2.03;;;18.10;99.90;;;;;;5033224;28;20178;-60
2023/09/24 10:27:06;;;;;;;4.55;2.20;;;18.20;99.90;;;;;;5033187;28;20179;-61
2023/09/24 10:29:59;;;;;;;4.70;2.08;;;18.30;99.90;;;;;;5032978;28;20194;-59
2023/09/24 10:32:25;;;;;;;2.38;2.00;;;18.30;99.90;;;;;;5029393;28;20218;-60
2023/09/24 10:34:51;;;;;;;2.35;2.10;;;18.40;99.90;;;;;;5033402;28;20202;-60
2023/09/24 10:37:18;;;;;;;2.92;2.03;;;18.50;99.90;;;;;;5015327;28;20210;-59
2023/09/24 10:39:59;;;;;;;3.60;2.05;;;18.50;99.90;;;;;;5034036;28;20598;-61
2023/09/24 10:42:26;;;;;;;3.97;2.20;;;18.60;99.90;;;;;;5008950;28;20190;-62
2023/09/24 10:45:07;;;;;;;2.25;1.80;;;18.60;99.90;;;;;;5013316;28;20261;-60
2023/09/24 10:47:40;;;;;;;4.72;2.20;;;18.60;99.90;;;;;;4995741;28;20214;-61
2023/09/24 10:50:08;;;;;;;1.90;1.80;;;18.70;99.90;;;;;;5013283;28;20632;-60
2023/09/24 10:52:54;;;;;;;2.42;1.92;;;18.80;99.90;;;;;;5013243;28;20249;-61
2023/09/24 10:55:42;;;;;;;3.95;2.05;;;19.00;99.90;;;;;;5013210;28;20183;-59
2023/09/24 10:58:13;;;;;;;3.50;1.90;;;18.90;99.90;;;;;;5013042;28;20249;-59
2023/09/24 11:00:41;;;;;;;3.65;2.00;;;18.90;99.90;;;;;;5013135;28;20600;-59
2023/09/24 11:03:08;;;;;;;4.47;1.92;;;19.00;99.90;;;;;;5013207;28;20171;-60
2023/09/24 11:05:40;;;;;;;2.88;1.90;;;19.00;99.90;;;;;;5013096;28;20536;-60
2023/09/24 11:08:07;;;;;;;4.75;2.75;;;19.00;99.90;;;;;;5012950;28;20271;-59
2023/09/24 11:10:34;;;;;;;3.97;2.20;;;19.10;99.90;;;;;;5013580;28;20502;-61
2023/09/24 11:13:02;;;;;;;3.25;2.05;;;19.30;99.90;;;;;;5023736;28;20436;-60
2023/09/24 11:15:31;;;;;;;3.63;1.70;;;19.30;99.90;;;;;;5032764;28;20179;-61
2023/09/24 11:18:01;;;;;;;4.50;2.17;;;19.60;99.90;;;;;;5032757;28;20305;-61
2023/09/24 11:20:32;;;;;;;4.00;2.20;;;19.70;99.90;;;;;;5015658;28;20254;-60
2023/09/24 11:23:09;;;;;;;5.72;2.30;;;19.80;99.90;;;;;;5036250;28;20589;-60
2023/09/24 11:25:35;;;;;;;2.92;2.13;;;19.80;99.90;;;;;;5018592;28;20179;-61
2023/09/24 11:28:03;;;;;;;3.90;2.03;;;19.90;99.90;;;;;;5036135;28;20176;-60
2023/09/24 11:30:46;;;;;;;3.72;2.10;;;19.90;99.90;;;;;;5036413;28;20166;-60
2023/09/24 11:33:23;;;;;;;3.88;2.00;;;20.00;99.90;;;;;;5036203;28;20199;-59
2023/09/24 11:35:51;;;;;;;4.55;1.90;;;20.20;99.90;;;;;;5036637;28;20166;-59
2023/09/24 11:38:35;;;;;;;3.10;2.20;;;20.20;99.90;;;;;;5036408;28;20240;-60
2023/09/24 11:41:09;;;;;;;3.92;2.00;;;20.20;99.90;;;;;;5036445;28;20155;-60
2023/09/24 11:43:36;;;;;;;3.38;2.00;;;20.30;99.90;;;;;;5035986;28;20183;-60
2023/09/24 11:46:02;;;;;;;2.80;1.65;;;20.50;99.90;;;;;;5036109;28;20187;-60
2023/09/24 11:48:29;;;;;;;3.15;1.95;;;20.80;99.90;;;;;;5035955;28;20195;-60
2023/09/24 11:51:02;;;;;;;3.17;1.98;;;21.00;99.90;;;;;;5036505;28;20151;-61
2023/09/24 11:53:28;;;;;;;2.45;1.80;;;21.10;99.90;;;;;;5035878;28;20175;-61
2023/09/24 11:55:59;;;;;;;3.22;1.80;;;21.20;99.90;;;;;;5035854;28;20155;-60
2023/09/24 11:58:26;;;;;;;2.35;1.83;;;21.20;99.90;;;;;;5018418;28;20206;-63
2023/09/24 12:00:54;;;;;;;3.78;2.00;;;21.00;99.90;;;;;;5035801;28;20152;-63
2023/09/24 12:03:20;;;;;;;4.60;1.98;;;21.10;99.90;;;;;;5035922;28;20171;-63
2023/09/24 12:05:47;;;;;;;3.88;2.03;;;21.10;99.90;;;;;;5035797;28;20737;-63
2023/09/24 12:08:14;;;;;;;2.05;1.70;;;20.90;99.90;;;;;;5035858;28;20608;-63
2023/09/24 12:10:46;;;;;;;5.05;2.35;;;20.90;99.90;;;;;;5035743;28;20754;-63
2023/09/24 12:13:13;;;;;;;2.25;1.70;;;21.10;99.90;;;;;;5035556;28;20213;-63
2023/09/24 12:15:39;;;;;;;3.10;1.55;;;21.40;99.90;;;;;;5017749;28;20262;-63
2023/09/24 12:18:07;;;;;;;2.50;1.50;;;21.60;99.90;;;;;;5035555;28;20236;-63
2023/09/24 12:20:39;;;;;;;4.80;1.88;;;21.70;99.90;;;;;;5035460;28;20640;-63
2023/09/24 12:23:07;;;;;;;2.63;1.95;;;21.70;99.90;;;;;;5017733;28;20187;-63
2023/09/24 12:25:37;;;;;;;2.45;2.20;;;21.80;99.90;;;;;;5035353;28;20171;-63
2023/09/24 12:28:08;;;;;;;3.55;2.00;;;21.80;99.90;;;;;;5035694;28;20205;-64
2023/09/24 12:30:35;;;;;;;6.53;1.90;;;21.80;99.90;;;;;;5035929;28;20597;-63
2023/09/24 12:33:00;;;;;;;3.60;1.80;;;21.60;99.90;;;;;;5035305;28;20202;-63
2023/09/24 12:35:26;;;;;;;3.65;2.00;;;21.60;99.90;;;;;;5035346;28;20190;-63
2023/09/24 12:37:55;;;;;;;2.60;1.70;;;21.60;99.90;;;;;;5035443;28;20245;-63
2023/09/24 12:40:22;;;;;;;3.15;1.80;;;21.90;99.90;;;;;;5035273;28;20178;-63
2023/09/24 12:42:48;;;;;;;3.92;1.98;;;22.20;99.90;;;;;;5034993;28;20211;-63
2023/09/24 12:45:16;;;;;;;2.40;1.77;;;22.30;99.90;;;;;;5035258;28;20702;-63
2023/09/24 12:47:41;;;;;;;3.97;1.63;;;22.20;99.90;;;;;;5035500;28;20544;-63
2023/09/24 12:50:10;;;;;;;2.50;1.70;;;22.10;99.90;;;;;;5017740;28;20203;-63
2023/09/24 12:52:39;;;;;;;4.57;2.13;;;22.20;99.90;;;;;;5035138;28;20678;-63
2023/09/24 12:55:08;;;;;;;4.10;1.70;;;22.10;99.90;;;;;;5034928;28;20268;-63